sensor_id;sensor_type;location;lat;lon;timestamp;P1;durP1;ratioP1;P2;durP2;ratioP2
2604;SDS011;1312;50.298;8.520;2024-01-30T00:00:22;33.60;;;28.17;;
2604;SDS011;1312;50.298;8.520;2024-01-30T00:02:50;32.70;;;27.07;;
2604;SDS011;1312;50.298;8.520;2024-01-30T00:05:19;27.73;;;24.20;;
2604;SDS011;1312;50.298;8.520;2024-01-30T00:07:47;28.20;;;24.37;;
2604;SDS011;1312;50.298;8.520;2024-01-30T00:10:15;30.00;;;25.27;;
2604;SDS011;1312;50.298;8.520;2024-01-30T00:12:43;28.03;;;25.07;;
2604;SDS011;1312;50.298;8.520;2024-01-30T00:15:11;29.57;;;24.03;;
2604;SDS011;1312;50.298;8.520;2024-01-30T00:17:39;27.27;;;23.87;;
2604;SDS011;1312;50.298;8.520;2024-01-30T00:20:07;26.00;;;23.30;;
2604;SDS011;1312;50.298;8.520;2024-01-30T00:22:37;25.53;;;22.53;;
2604;SDS011;1312;50.298;8.520;2024-01-30T00:25:05;28.13;;;25.07;;
2604;SDS011;1312;50.298;8.520;2024-01-30T00:27:34;22.30;;;20.00;;
2604;SDS011;1312;50.298;8.520;2024-01-30T00:30:02;21.67;;;19.47;;
2604;SDS011;1312;50.298;8.520;2024-01-30T00:32:31;25.67;;;20.37;;
2604;SDS011;1312;50.298;8.520;2024-01-30T00:34:59;24.53;;;21.67;;
2604;SDS011;1312;50.298;8.520;2024-01-30T00:37:27;20.63;;;18.53;;
2604;SDS011;1312;50.298;8.520;2024-01-30T00:39:56;23.10;;;20.80;;
2604;SDS011;1312;50.298;8.520;2024-01-30T00:42:24;20.73;;;18.23;;
2604;SDS011;1312;50.298;8.520;2024-01-30T00:44:52;22.17;;;19.93;;
2604;SDS011;1312;50.298;8.520;2024-01-30T00:47:20;20.90;;;18.80;;
2604;SDS011;1312;50.298;8.520;2024-01-30T00:49:48;24.77;;;22.07;;
2604;SDS011;1312;50.298;8.520;2024-01-30T00:52:16;19.40;;;17.43;;
2604;SDS011;1312;50.298;8.520;2024-01-30T00:54:44;23.27;;;20.57;;
2604;SDS011;1312;50.298;8.520;2024-01-30T00:57:13;32.13;;;25.57;;
2604;SDS011;1312;50.298;8.520;2024-01-30T00:59:41;22.20;;;19.90;;
2604;SDS011;1312;50.298;8.520;2024-01-30T01:02:09;28.63;;;24.57;;
2604;SDS011;1312;50.298;8.520;2024-01-30T01:04:37;31.47;;;25.60;;
2604;SDS011;1312;50.298;8.520;2024-01-30T01:07:05;33.20;;;29.03;;
2604;SDS011;1312;50.298;8.520;2024-01-30T01:09:33;32.07;;;26.90;;
2604;SDS011;1312;50.298;8.520;2024-01-30T01:12:01;32.87;;;27.40;;
2604;SDS011;1312;50.298;8.520;2024-01-30T01:14:30;25.67;;;23.00;;
2604;SDS011;1312;50.298;8.520;2024-01-30T01:16:58;26.27;;;23.57;;
2604;SDS011;1312;50.298;8.520;2024-01-30T01:19:26;22.93;;;20.53;;
2604;SDS011;1312;50.298;8.520;2024-01-30T01:21:54;27.77;;;24.80;;
2604;SDS011;1312;50.298;8.520;2024-01-30T01:24:23;34.10;;;30.40;;
2604;SDS011;1312;50.298;8.520;2024-01-30T01:26:51;26.57;;;22.83;;
2604;SDS011;1312;50.298;8.520;2024-01-30T01:29:19;22.80;;;20.50;;
2604;SDS011;1312;50.298;8.520;2024-01-30T01:31:56;23.03;;;20.73;;
2604;SDS011;1312;50.298;8.520;2024-01-30T01:34:24;23.53;;;21.03;;
2604;SDS011;1312;50.298;8.520;2024-01-30T01:36:56;27.77;;;24.37;;
2604;SDS011;1312;50.298;8.520;2024-01-30T01:39:24;24.63;;;21.50;;
2604;SDS011;1312;50.298;8.520;2024-01-30T01:41:52;23.37;;;20.97;;
2604;SDS011;1312;50.298;8.520;2024-01-30T01:44:20;21.87;;;19.70;;
2604;SDS011;1312;50.298;8.520;2024-01-30T01:46:48;28.50;;;24.60;;
2604;SDS011;1312;50.298;8.520;2024-01-30T01:49:18;35.93;;;29.83;;
2604;SDS011;1312;50.298;8.520;2024-01-30T01:51:46;34.30;;;27.80;;
2604;SDS011;1312;50.298;8.520;2024-01-30T01:54:15;32.57;;;25.50;;
2604;SDS011;1312;50.298;8.520;2024-01-30T01:56:44;32.20;;;26.30;;
2604;SDS011;1312;50.298;8.520;2024-01-30T01:59:11;25.63;;;22.93;;
2604;SDS011;1312;50.298;8.520;2024-01-30T02:01:39;39.07;;;34.97;;
2604;SDS011;1312;50.298;8.520;2024-01-30T02:04:07;38.40;;;34.33;;
2604;SDS011;1312;50.298;8.520;2024-01-30T02:06:37;30.27;;;27.30;;
2604;SDS011;1312;50.298;8.520;2024-01-30T02:09:06;32.60;;;29.43;;
2604;SDS011;1312;50.298;8.520;2024-01-30T02:11:35;26.93;;;24.10;;
2604;SDS011;1312;50.298;8.520;2024-01-30T02:14:03;32.17;;;28.67;;
2604;SDS011;1312;50.298;8.520;2024-01-30T02:16:32;36.63;;;32.70;;
2604;SDS011;1312;50.298;8.520;2024-01-30T02:19:00;29.77;;;26.80;;
2604;SDS011;1312;50.298;8.520;2024-01-30T02:21:29;29.40;;;26.70;;
2604;SDS011;1312;50.298;8.520;2024-01-30T02:23:57;37.20;;;33.20;;
2604;SDS011;1312;50.298;8.520;2024-01-30T02:26:27;34.67;;;31.30;;
2604;SDS011;1312;50.298;8.520;2024-01-30T02:28:54;28.13;;;25.53;;
2604;SDS011;1312;50.298;8.520;2024-01-30T02:31:22;36.33;;;29.13;;
2604;SDS011;1312;50.298;8.520;2024-01-30T02:33:52;28.23;;;25.27;;
2604;SDS011;1312;50.298;8.520;2024-01-30T02:51:46;42.40;;;32.60;;
2604;SDS011;1312;50.298;8.520;2024-01-30T02:54:14;37.00;;;30.47;;
2604;SDS011;1312;50.298;8.520;2024-01-30T02:56:41;31.03;;;26.77;;
2604;SDS011;1312;50.298;8.520;2024-01-30T02:59:09;34.20;;;25.40;;
2604;SDS011;1312;50.298;8.520;2024-01-30T03:01:46;37.83;;;34.03;;
2604;SDS011;1312;50.298;8.520;2024-01-30T03:04:14;31.93;;;28.80;;
2604;SDS011;1312;50.298;8.520;2024-01-30T03:06:47;37.93;;;33.63;;
2604;SDS011;1312;50.298;8.520;2024-01-30T03:09:16;31.07;;;28.10;;
2604;SDS011;1312;50.298;8.520;2024-01-30T03:11:44;28.97;;;26.27;;
2604;SDS011;1312;50.298;8.520;2024-01-30T03:14:12;29.80;;;26.70;;
2604;SDS011;1312;50.298;8.520;2024-01-30T03:16:40;27.90;;;25.30;;
2604;SDS011;1312;50.298;8.520;2024-01-30T03:19:08;26.57;;;24.27;;
2604;SDS011;1312;50.298;8.520;2024-01-30T03:21:36;27.50;;;24.80;;
2604;SDS011;1312;50.298;8.520;2024-01-30T03:24:05;28.50;;;26.00;;
2604;SDS011;1312;50.298;8.520;2024-01-30T03:26:33;27.63;;;25.23;;
2604;SDS011;1312;50.298;8.520;2024-01-30T03:29:01;26.47;;;23.83;;
2604;SDS011;1312;50.298;8.520;2024-01-30T03:31:29;26.53;;;23.93;;
2604;SDS011;1312;50.298;8.520;2024-01-30T03:33:57;26.93;;;24.43;;
2604;SDS011;1312;50.298;8.520;2024-01-30T03:36:25;26.97;;;24.57;;
2604;SDS011;1312;50.298;8.520;2024-01-30T03:38:53;26.97;;;24.40;;
2604;SDS011;1312;50.298;8.520;2024-01-30T03:41:23;32.83;;;29.63;;
2604;SDS011;1312;50.298;8.520;2024-01-30T03:43:50;35.00;;;31.17;;
2604;SDS011;1312;50.298;8.520;2024-01-30T03:46:18;36.73;;;33.00;;
2604;SDS011;1312;50.298;8.520;2024-01-30T03:48:46;31.10;;;28.00;;
2604;SDS011;1312;50.298;8.520;2024-01-30T03:51:14;28.77;;;26.20;;
2604;SDS011;1312;50.298;8.520;2024-01-30T03:53:42;26.37;;;23.97;;
2604;SDS011;1312;50.298;8.520;2024-01-30T03:56:12;27.30;;;24.80;;
2604;SDS011;1312;50.298;8.520;2024-01-30T03:58:42;28.10;;;25.60;;
2604;SDS011;1312;50.298;8.520;2024-01-30T04:01:12;28.50;;;24.20;;
2604;SDS011;1312;50.298;8.520;2024-01-30T04:03:41;34.97;;;28.93;;
2604;SDS011;1312;50.298;8.520;2024-01-30T04:06:10;40.17;;;34.10;;
2604;SDS011;1312;50.298;8.520;2024-01-30T04:08:39;44.53;;;34.07;;
2604;SDS011;1312;50.298;8.520;2024-01-30T04:11:07;41.90;;;32.77;;
2604;SDS011;1312;50.298;8.520;2024-01-30T04:13:35;38.80;;;31.40;;
2604;SDS011;1312;50.298;8.520;2024-01-30T04:16:05;41.77;;;31.73;;
2604;SDS011;1312;50.298;8.520;2024-01-30T04:18:33;29.87;;;25.43;;
2604;SDS011;1312;50.298;8.520;2024-01-30T04:21:02;26.93;;;24.00;;
2604;SDS011;1312;50.298;8.520;2024-01-30T04:23:29;23.53;;;21.20;;
2604;SDS011;1312;50.298;8.520;2024-01-30T04:25:57;24.03;;;21.57;;
2604;SDS011;1312;50.298;8.520;2024-01-30T04:28:25;23.93;;;21.57;;
2604;SDS011;1312;50.298;8.520;2024-01-30T04:30:53;22.43;;;20.23;;
2604;SDS011;1312;50.298;8.520;2024-01-30T04:33:22;20.73;;;18.57;;
2604;SDS011;1312;50.298;8.520;2024-01-30T04:35:50;20.43;;;18.43;;
2604;SDS011;1312;50.298;8.520;2024-01-30T04:38:19;20.40;;;18.40;;
2604;SDS011;1312;50.298;8.520;2024-01-30T04:40:47;22.67;;;20.30;;
2604;SDS011;1312;50.298;8.520;2024-01-30T04:43:15;20.83;;;18.00;;
2604;SDS011;1312;50.298;8.520;2024-01-30T04:45:42;20.50;;;18.43;;
2604;SDS011;1312;50.298;8.520;2024-01-30T04:48:10;22.67;;;20.37;;
2604;SDS011;1312;50.298;8.520;2024-01-30T04:50:40;35.07;;;31.10;;
2604;SDS011;1312;50.298;8.520;2024-01-30T04:53:08;24.17;;;21.77;;
2604;SDS011;1312;50.298;8.520;2024-01-30T04:55:36;21.97;;;19.87;;
2604;SDS011;1312;50.298;8.520;2024-01-30T04:58:04;21.20;;;18.90;;
2604;SDS011;1312;50.298;8.520;2024-01-30T05:00:32;35.27;;;27.43;;
2604;SDS011;1312;50.298;8.520;2024-01-30T05:03:00;38.37;;;33.23;;
2604;SDS011;1312;50.298;8.520;2024-01-30T05:05:28;26.47;;;23.87;;
2604;SDS011;1312;50.298;8.520;2024-01-30T05:07:57;23.87;;;21.57;;
2604;SDS011;1312;50.298;8.520;2024-01-30T05:10:25;24.60;;;22.20;;
2604;SDS011;1312;50.298;8.520;2024-01-30T05:12:55;25.77;;;23.17;;
2604;SDS011;1312;50.298;8.520;2024-01-30T05:15:22;24.23;;;21.70;;
2604;SDS011;1312;50.298;8.520;2024-01-30T05:17:50;23.33;;;21.03;;
2604;SDS011;1312;50.298;8.520;2024-01-30T05:20:19;21.87;;;19.77;;
2604;SDS011;1312;50.298;8.520;2024-01-30T05:22:47;37.53;;;30.07;;
2604;SDS011;1312;50.298;8.520;2024-01-30T05:25:16;28.60;;;23.40;;
2604;SDS011;1312;50.298;8.520;2024-01-30T05:27:44;28.90;;;25.80;;
2604;SDS011;1312;50.298;8.520;2024-01-30T05:30:12;27.70;;;24.77;;
2604;SDS011;1312;50.298;8.520;2024-01-30T05:32:41;26.80;;;24.00;;
2604;SDS011;1312;50.298;8.520;2024-01-30T05:35:09;26.93;;;24.07;;
2604;SDS011;1312;50.298;8.520;2024-01-30T05:37:37;24.80;;;22.40;;
2604;SDS011;1312;50.298;8.520;2024-01-30T05:40:05;30.23;;;24.67;;
2604;SDS011;1312;50.298;8.520;2024-01-30T05:42:35;34.63;;;29.37;;
2604;SDS011;1312;50.298;8.520;2024-01-30T05:45:03;29.40;;;25.17;;
2604;SDS011;1312;50.298;8.520;2024-01-30T05:47:32;23.93;;;21.30;;
2604;SDS011;1312;50.298;8.520;2024-01-30T05:50:00;26.27;;;23.60;;
2604;SDS011;1312;50.298;8.520;2024-01-30T05:52:28;25.63;;;23.03;;
2604;SDS011;1312;50.298;8.520;2024-01-30T05:54:56;23.80;;;20.87;;
2604;SDS011;1312;50.298;8.520;2024-01-30T05:57:24;24.57;;;21.93;;
2604;SDS011;1312;50.298;8.520;2024-01-30T05:59:53;24.23;;;21.60;;
2604;SDS011;1312;50.298;8.520;2024-01-30T06:02:21;24.53;;;22.00;;
2604;SDS011;1312;50.298;8.520;2024-01-30T06:04:49;24.23;;;21.67;;
2604;SDS011;1312;50.298;8.520;2024-01-30T06:07:17;23.37;;;20.70;;
2604;SDS011;1312;50.298;8.520;2024-01-30T06:09:45;24.20;;;21.70;;
2604;SDS011;1312;50.298;8.520;2024-01-30T06:12:13;26.50;;;21.47;;
2604;SDS011;1312;50.298;8.520;2024-01-30T06:14:41;25.43;;;22.83;;
2604;SDS011;1312;50.298;8.520;2024-01-30T06:17:14;34.47;;;28.00;;
2604;SDS011;1312;50.298;8.520;2024-01-30T06:19:42;23.33;;;20.83;;
2604;SDS011;1312;50.298;8.520;2024-01-30T06:22:10;28.17;;;23.27;;
2604;SDS011;1312;50.298;8.520;2024-01-30T06:24:38;29.33;;;25.47;;
2604;SDS011;1312;50.298;8.520;2024-01-30T06:27:06;38.20;;;29.70;;
2604;SDS011;1312;50.298;8.520;2024-01-30T06:29:33;31.00;;;27.63;;
2604;SDS011;1312;50.298;8.520;2024-01-30T06:32:01;43.90;;;33.90;;
2604;SDS011;1312;50.298;8.520;2024-01-30T06:34:31;44.73;;;35.43;;
2604;SDS011;1312;50.298;8.520;2024-01-30T06:36:59;28.27;;;25.27;;
2604;SDS011;1312;50.298;8.520;2024-01-30T06:39:27;34.10;;;30.63;;
2604;SDS011;1312;50.298;8.520;2024-01-30T06:41:55;33.43;;;29.90;;
2604;SDS011;1312;50.298;8.520;2024-01-30T06:44:23;46.50;;;38.73;;
2604;SDS011;1312;50.298;8.520;2024-01-30T06:46:50;34.97;;;31.30;;
2604;SDS011;1312;50.298;8.520;2024-01-30T06:49:18;46.07;;;36.20;;
2604;SDS011;1312;50.298;8.520;2024-01-30T06:51:49;57.87;;;42.57;;
2604;SDS011;1312;50.298;8.520;2024-01-30T06:54:17;38.43;;;31.93;;
2604;SDS011;1312;50.298;8.520;2024-01-30T06:56:45;35.37;;;31.60;;
2604;SDS011;1312;50.298;8.520;2024-01-30T06:59:13;56.00;;;41.60;;
2604;SDS011;1312;50.298;8.520;2024-01-30T07:01:41;43.80;;;35.80;;
2604;SDS011;1312;50.298;8.520;2024-01-30T07:04:09;34.83;;;31.27;;
2604;SDS011;1312;50.298;8.520;2024-01-30T07:06:37;32.20;;;28.90;;
2604;SDS011;1312;50.298;8.520;2024-01-30T07:09:06;47.07;;;38.60;;
2604;SDS011;1312;50.298;8.520;2024-01-30T07:11:35;32.87;;;28.93;;
2604;SDS011;1312;50.298;8.520;2024-01-30T07:14:03;34.33;;;30.33;;
2604;SDS011;1312;50.298;8.520;2024-01-30T07:16:31;33.93;;;29.73;;
2604;SDS011;1312;50.298;8.520;2024-01-30T07:18:59;28.30;;;25.23;;
2604;SDS011;1312;50.298;8.520;2024-01-30T07:21:27;23.77;;;21.30;;
2604;SDS011;1312;50.298;8.520;2024-01-30T07:23:55;27.17;;;24.00;;
2604;SDS011;1312;50.298;8.520;2024-01-30T07:26:24;38.67;;;31.03;;
2604;SDS011;1312;50.298;8.520;2024-01-30T07:28:53;29.57;;;25.87;;
2604;SDS011;1312;50.298;8.520;2024-01-30T07:31:21;29.33;;;24.47;;
2604;SDS011;1312;50.298;8.520;2024-01-30T07:33:50;47.63;;;34.50;;
2604;SDS011;1312;50.298;8.520;2024-01-30T07:36:18;53.17;;;35.50;;
2604;SDS011;1312;50.298;8.520;2024-01-30T07:38:46;57.63;;;40.50;;
2604;SDS011;1312;50.298;8.520;2024-01-30T07:41:14;31.10;;;25.63;;
2604;SDS011;1312;50.298;8.520;2024-01-30T07:43:45;64.73;;;50.70;;
2604;SDS011;1312;50.298;8.520;2024-01-30T07:46:13;63.07;;;42.30;;
2604;SDS011;1312;50.298;8.520;2024-01-30T07:48:41;67.30;;;49.10;;
2604;SDS011;1312;50.298;8.520;2024-01-30T07:51:09;68.60;;;49.07;;
2604;SDS011;1312;50.298;8.520;2024-01-30T07:53:37;34.10;;;30.70;;
2604;SDS011;1312;50.298;8.520;2024-01-30T07:56:05;52.53;;;41.80;;
2604;SDS011;1312;50.298;8.520;2024-01-30T07:58:34;42.23;;;33.47;;
2604;SDS011;1312;50.298;8.520;2024-01-30T08:01:03;42.07;;;36.40;;
2604;SDS011;1312;50.298;8.520;2024-01-30T08:03:31;54.93;;;44.03;;
2604;SDS011;1312;50.298;8.520;2024-01-30T08:06:00;55.67;;;44.30;;
2604;SDS011;1312;50.298;8.520;2024-01-30T08:08:28;56.33;;;45.67;;
2604;SDS011;1312;50.298;8.520;2024-01-30T08:10:56;52.10;;;43.20;;
2604;SDS011;1312;50.298;8.520;2024-01-30T08:13:24;35.80;;;32.00;;
2604;SDS011;1312;50.298;8.520;2024-01-30T08:15:52;47.50;;;40.90;;
2604;SDS011;1312;50.298;8.520;2024-01-30T08:18:21;38.33;;;33.23;;
2604;SDS011;1312;50.298;8.520;2024-01-30T08:20:50;36.90;;;32.23;;
2604;SDS011;1312;50.298;8.520;2024-01-30T08:23:18;39.90;;;32.40;;
2604;SDS011;1312;50.298;8.520;2024-01-30T08:25:46;35.37;;;31.30;;
2604;SDS011;1312;50.298;8.520;2024-01-30T08:28:15;25.37;;;22.77;;
2604;SDS011;1312;50.298;8.520;2024-01-30T08:30:46;29.67;;;26.77;;
2604;SDS011;1312;50.298;8.520;2024-01-30T08:33:14;32.83;;;28.70;;
2604;SDS011;1312;50.298;8.520;2024-01-30T08:35:44;24.00;;;21.70;;
2604;SDS011;1312;50.298;8.520;2024-01-30T08:38:12;24.20;;;21.67;;
2604;SDS011;1312;50.298;8.520;2024-01-30T08:40:40;28.67;;;23.20;;
2604;SDS011;1312;50.298;8.520;2024-01-30T08:43:08;26.37;;;23.53;;
2604;SDS011;1312;50.298;8.520;2024-01-30T08:45:37;24.10;;;21.67;;
2604;SDS011;1312;50.298;8.520;2024-01-30T08:48:05;24.70;;;22.10;;
2604;SDS011;1312;50.298;8.520;2024-01-30T08:50:34;24.77;;;22.20;;
2604;SDS011;1312;50.298;8.520;2024-01-30T08:53:04;20.93;;;18.63;;
2604;SDS011;1312;50.298;8.520;2024-01-30T08:55:32;22.03;;;19.83;;
2604;SDS011;1312;50.298;8.520;2024-01-30T08:58:00;20.63;;;18.60;;
2604;SDS011;1312;50.298;8.520;2024-01-30T09:00:30;24.60;;;22.13;;
2604;SDS011;1312;50.298;8.520;2024-01-30T09:03:00;23.63;;;19.20;;
2604;SDS011;1312;50.298;8.520;2024-01-30T09:05:28;21.03;;;19.10;;
2604;SDS011;1312;50.298;8.520;2024-01-30T09:07:56;23.03;;;20.90;;
2604;SDS011;1312;50.298;8.520;2024-01-30T09:10:25;19.40;;;17.60;;
2604;SDS011;1312;50.298;8.520;2024-01-30T09:12:54;22.40;;;20.27;;
2604;SDS011;1312;50.298;8.520;2024-01-30T09:15:22;17.93;;;16.13;;
2604;SDS011;1312;50.298;8.520;2024-01-30T09:17:52;19.03;;;17.20;;
2604;SDS011;1312;50.298;8.520;2024-01-30T09:20:20;35.77;;;31.87;;
2604;SDS011;1312;50.298;8.520;2024-01-30T09:22:49;21.00;;;18.90;;
2604;SDS011;1312;50.298;8.520;2024-01-30T09:25:17;32.70;;;29.10;;
2604;SDS011;1312;50.298;8.520;2024-01-30T09:27:47;36.40;;;32.20;;
2604;SDS011;1312;50.298;8.520;2024-01-30T09:30:15;33.63;;;30.10;;
2604;SDS011;1312;50.298;8.520;2024-01-30T09:32:44;32.17;;;28.83;;
2604;SDS011;1312;50.298;8.520;2024-01-30T09:35:11;30.00;;;26.83;;
2604;SDS011;1312;50.298;8.520;2024-01-30T09:37:40;29.20;;;26.13;;
2604;SDS011;1312;50.298;8.520;2024-01-30T09:40:08;30.37;;;27.20;;
2604;SDS011;1312;50.298;8.520;2024-01-30T09:42:36;30.67;;;27.47;;
2604;SDS011;1312;50.298;8.520;2024-01-30T09:45:05;28.90;;;25.87;;
2604;SDS011;1312;50.298;8.520;2024-01-30T09:47:35;27.30;;;24.60;;
2604;SDS011;1312;50.298;8.520;2024-01-30T09:50:07;21.70;;;19.57;;
2604;SDS011;1312;50.298;8.520;2024-01-30T09:52:36;22.37;;;20.27;;
2604;SDS011;1312;50.298;8.520;2024-01-30T09:55:04;26.40;;;23.93;;
2604;SDS011;1312;50.298;8.520;2024-01-30T09:57:33;25.03;;;22.57;;
2604;SDS011;1312;50.298;8.520;2024-01-30T10:00:01;25.60;;;22.37;;
2604;SDS011;1312;50.298;8.520;2024-01-30T10:02:32;23.80;;;21.70;;
2604;SDS011;1312;50.298;8.520;2024-01-30T10:05:00;25.50;;;23.10;;
2604;SDS011;1312;50.298;8.520;2024-01-30T10:07:29;22.73;;;20.83;;
2604;SDS011;1312;50.298;8.520;2024-01-30T10:09:57;25.50;;;23.20;;
2604;SDS011;1312;50.298;8.520;2024-01-30T10:12:25;21.80;;;20.07;;
2604;SDS011;1312;50.298;8.520;2024-01-30T10:14:55;27.33;;;24.70;;
2604;SDS011;1312;50.298;8.520;2024-01-30T10:17:24;27.10;;;24.70;;
2604;SDS011;1312;50.298;8.520;2024-01-30T10:20:03;26.30;;;23.93;;
2604;SDS011;1312;50.298;8.520;2024-01-30T10:22:32;26.17;;;23.57;;
2604;SDS011;1312;50.298;8.520;2024-01-30T10:25:00;24.10;;;21.90;;
2604;SDS011;1312;50.298;8.520;2024-01-30T10:27:32;26.17;;;23.50;;
2604;SDS011;1312;50.298;8.520;2024-01-30T10:30:00;25.47;;;23.33;;
2604;SDS011;1312;50.298;8.520;2024-01-30T10:32:30;24.63;;;22.70;;
2604;SDS011;1312;50.298;8.520;2024-01-30T10:34:58;21.50;;;19.60;;
2604;SDS011;1312;50.298;8.520;2024-01-30T10:37:30;21.97;;;20.30;;
2604;SDS011;1312;50.298;8.520;2024-01-30T10:40:01;25.90;;;23.70;;
2604;SDS011;1312;50.298;8.520;2024-01-30T10:42:32;25.60;;;23.50;;
2604;SDS011;1312;50.298;8.520;2024-01-30T10:45:02;23.70;;;21.70;;
2604;SDS011;1312;50.298;8.520;2024-01-30T10:47:35;21.27;;;19.57;;
2604;SDS011;1312;50.298;8.520;2024-01-30T10:50:05;21.97;;;20.17;;
2604;SDS011;1312;50.298;8.520;2024-01-30T10:52:36;22.53;;;20.50;;
2604;SDS011;1312;50.298;8.520;2024-01-30T10:55:05;23.33;;;21.27;;
2604;SDS011;1312;50.298;8.520;2024-01-30T10:57:34;22.43;;;20.00;;
2604;SDS011;1312;50.298;8.520;2024-01-30T11:00:03;17.87;;;16.27;;
2604;SDS011;1312;50.298;8.520;2024-01-30T11:02:36;18.50;;;16.80;;
2604;SDS011;1312;50.298;8.520;2024-01-30T11:05:08;18.70;;;16.97;;
2604;SDS011;1312;50.298;8.520;2024-01-30T11:07:38;20.77;;;19.00;;
2604;SDS011;1312;50.298;8.520;2024-01-30T11:10:07;22.50;;;20.63;;
2604;SDS011;1312;50.298;8.520;2024-01-30T11:12:37;23.07;;;21.30;;
2604;SDS011;1312;50.298;8.520;2024-01-30T11:15:10;21.73;;;20.03;;
2604;SDS011;1312;50.298;8.520;2024-01-30T11:17:43;22.40;;;20.33;;
2604;SDS011;1312;50.298;8.520;2024-01-30T11:20:15;21.67;;;19.87;;
2604;SDS011;1312;50.298;8.520;2024-01-30T11:22:46;20.80;;;19.17;;
2604;SDS011;1312;50.298;8.520;2024-01-30T11:25:15;20.57;;;18.80;;
2604;SDS011;1312;50.298;8.520;2024-01-30T11:27:45;20.40;;;18.87;;
2604;SDS011;1312;50.298;8.520;2024-01-30T11:30:20;20.33;;;18.70;;
2604;SDS011;1312;50.298;8.520;2024-01-30T11:32:59;20.50;;;18.90;;
2604;SDS011;1312;50.298;8.520;2024-01-30T11:35:30;21.13;;;19.07;;
2604;SDS011;1312;50.298;8.520;2024-01-30T11:38:00;21.63;;;19.80;;
2604;SDS011;1312;50.298;8.520;2024-01-30T11:40:29;21.40;;;19.50;;
2604;SDS011;1312;50.298;8.520;2024-01-30T11:42:58;21.20;;;19.30;;
2604;SDS011;1312;50.298;8.520;2024-01-30T11:45:27;22.00;;;20.30;;
2604;SDS011;1312;50.298;8.520;2024-01-30T11:47:56;21.77;;;20.03;;
2604;SDS011;1312;50.298;8.520;2024-01-30T11:50:26;22.17;;;20.13;;
2604;SDS011;1312;50.298;8.520;2024-01-30T11:52:56;20.50;;;18.70;;
2604;SDS011;1312;50.298;8.520;2024-01-30T11:55:24;22.60;;;20.50;;
2604;SDS011;1312;50.298;8.520;2024-01-30T11:57:55;21.70;;;19.80;;
2604;SDS011;1312;50.298;8.520;2024-01-30T12:00:24;19.63;;;18.03;;
2604;SDS011;1312;50.298;8.520;2024-01-30T12:02:53;19.17;;;17.67;;
2604;SDS011;1312;50.298;8.520;2024-01-30T12:05:23;20.00;;;18.07;;
2604;SDS011;1312;50.298;8.520;2024-01-30T12:07:57;20.43;;;18.93;;
2604;SDS011;1312;50.298;8.520;2024-01-30T12:10:27;21.40;;;19.40;;
2604;SDS011;1312;50.298;8.520;2024-01-30T12:12:56;18.80;;;17.40;;
2604;SDS011;1312;50.298;8.520;2024-01-30T12:15:25;19.73;;;18.17;;
2604;SDS011;1312;50.298;8.520;2024-01-30T12:18:03;18.67;;;17.37;;
2604;SDS011;1312;50.298;8.520;2024-01-30T12:20:31;21.63;;;19.90;;
2604;SDS011;1312;50.298;8.520;2024-01-30T12:23:01;20.93;;;19.23;;
2604;SDS011;1312;50.298;8.520;2024-01-30T12:25:29;21.00;;;19.17;;
2604;SDS011;1312;50.298;8.520;2024-01-30T12:27:57;20.47;;;18.77;;
2604;SDS011;1312;50.298;8.520;2024-01-30T12:30:25;21.03;;;19.20;;
2604;SDS011;1312;50.298;8.520;2024-01-30T12:32:55;19.83;;;18.13;;
2604;SDS011;1312;50.298;8.520;2024-01-30T12:35:24;21.13;;;19.47;;
2604;SDS011;1312;50.298;8.520;2024-01-30T12:37:54;13.97;;;12.57;;
2604;SDS011;1312;50.298;8.520;2024-01-30T12:40:24;12.53;;;11.40;;
2604;SDS011;1312;50.298;8.520;2024-01-30T12:42:52;11.77;;;10.67;;
2604;SDS011;1312;50.298;8.520;2024-01-30T12:45:21;13.00;;;11.57;;
2604;SDS011;1312;50.298;8.520;2024-01-30T12:47:49;13.10;;;11.90;;
2604;SDS011;1312;50.298;8.520;2024-01-30T12:50:18;11.13;;;10.13;;
2604;SDS011;1312;50.298;8.520;2024-01-30T12:52:46;11.43;;;10.53;;
2604;SDS011;1312;50.298;8.520;2024-01-30T12:55:15;12.53;;;11.30;;
2604;SDS011;1312;50.298;8.520;2024-01-30T12:57:45;13.10;;;11.80;;
2604;SDS011;1312;50.298;8.520;2024-01-30T13:00:14;12.80;;;11.50;;
2604;SDS011;1312;50.298;8.520;2024-01-30T13:02:43;14.10;;;12.70;;
2604;SDS011;1312;50.298;8.520;2024-01-30T13:05:12;12.40;;;11.40;;
2604;SDS011;1312;50.298;8.520;2024-01-30T13:07:40;12.10;;;11.00;;
2604;SDS011;1312;50.298;8.520;2024-01-30T13:10:08;10.50;;;9.50;;
2604;SDS011;1312;50.298;8.520;2024-01-30T13:12:36;11.30;;;10.40;;
2604;SDS011;1312;50.298;8.520;2024-01-30T13:15:06;10.77;;;9.83;;
2604;SDS011;1312;50.298;8.520;2024-01-30T13:17:35;12.13;;;11.00;;
2604;SDS011;1312;50.298;8.520;2024-01-30T13:20:03;10.53;;;9.53;;
2604;SDS011;1312;50.298;8.520;2024-01-30T13:22:37;10.77;;;9.80;;
2604;SDS011;1312;50.298;8.520;2024-01-30T13:25:06;15.07;;;11.43;;
2604;SDS011;1312;50.298;8.520;2024-01-30T13:27:35;12.43;;;11.30;;
2604;SDS011;1312;50.298;8.520;2024-01-30T13:30:04;13.00;;;11.60;;
2604;SDS011;1312;50.298;8.520;2024-01-30T13:32:36;7.63;;;6.77;;
2604;SDS011;1312;50.298;8.520;2024-01-30T13:35:05;8.70;;;7.83;;
2604;SDS011;1312;50.298;8.520;2024-01-30T13:37:33;9.13;;;8.23;;
2604;SDS011;1312;50.298;8.520;2024-01-30T13:40:03;9.40;;;8.60;;
2604;SDS011;1312;50.298;8.520;2024-01-30T13:42:37;9.77;;;8.87;;
2604;SDS011;1312;50.298;8.520;2024-01-30T13:45:05;11.20;;;10.20;;
2604;SDS011;1312;50.298;8.520;2024-01-30T13:53:43;10.30;;;9.40;;
2604;SDS011;1312;50.298;8.520;2024-01-30T13:56:11;10.43;;;9.37;;
2604;SDS011;1312;50.298;8.520;2024-01-30T13:58:39;9.20;;;8.50;;
2604;SDS011;1312;50.298;8.520;2024-01-30T14:01:09;9.17;;;8.27;;
2604;SDS011;1312;50.298;8.520;2024-01-30T14:03:37;8.13;;;7.40;;
2604;SDS011;1312;50.298;8.520;2024-01-30T14:06:05;8.83;;;7.93;;
2604;SDS011;1312;50.298;8.520;2024-01-30T14:08:33;11.93;;;8.37;;
2604;SDS011;1312;50.298;8.520;2024-01-30T14:11:01;8.10;;;7.30;;
2604;SDS011;1312;50.298;8.520;2024-01-30T14:13:29;9.10;;;6.73;;
2604;SDS011;1312;50.298;8.520;2024-01-30T14:15:59;10.20;;;8.00;;
2604;SDS011;1312;50.298;8.520;2024-01-30T14:18:30;12.40;;;11.10;;
2604;SDS011;1312;50.298;8.520;2024-01-30T14:20:57;16.07;;;14.67;;
2604;SDS011;1312;50.298;8.520;2024-01-30T14:23:25;14.20;;;13.00;;
2604;SDS011;1312;50.298;8.520;2024-01-30T14:25:53;17.23;;;11.83;;
2604;SDS011;1312;50.298;8.520;2024-01-30T14:28:21;13.77;;;12.47;;
2604;SDS011;1312;50.298;8.520;2024-01-30T14:30:49;12.50;;;11.30;;
2604;SDS011;1312;50.298;8.520;2024-01-30T14:33:17;11.67;;;10.60;;
2604;SDS011;1312;50.298;8.520;2024-01-30T14:35:46;14.40;;;13.10;;
2604;SDS011;1312;50.298;8.520;2024-01-30T14:38:14;12.73;;;11.47;;
2604;SDS011;1312;50.298;8.520;2024-01-30T14:40:42;12.00;;;10.83;;
2604;SDS011;1312;50.298;8.520;2024-01-30T14:43:10;12.63;;;10.97;;
2604;SDS011;1312;50.298;8.520;2024-01-30T14:45:38;13.13;;;11.83;;
2604;SDS011;1312;50.298;8.520;2024-01-30T14:48:08;13.70;;;12.30;;
2604;SDS011;1312;50.298;8.520;2024-01-30T14:50:36;15.40;;;12.90;;
2604;SDS011;1312;50.298;8.520;2024-01-30T14:53:05;13.20;;;11.87;;
2604;SDS011;1312;50.298;8.520;2024-01-30T14:55:33;13.60;;;12.30;;
2604;SDS011;1312;50.298;8.520;2024-01-30T14:58:01;13.87;;;12.47;;
2604;SDS011;1312;50.298;8.520;2024-01-30T15:00:30;14.23;;;12.47;;
2604;SDS011;1312;50.298;8.520;2024-01-30T15:02:58;12.37;;;11.27;;
2604;SDS011;1312;50.298;8.520;2024-01-30T15:05:26;13.87;;;12.13;;
2604;SDS011;1312;50.298;8.520;2024-01-30T15:07:54;12.60;;;11.40;;
2604;SDS011;1312;50.298;8.520;2024-01-30T15:10:24;12.40;;;11.10;;
2604;SDS011;1312;50.298;8.520;2024-01-30T15:12:52;13.20;;;11.90;;
2604;SDS011;1312;50.298;8.520;2024-01-30T15:15:20;14.07;;;12.60;;
2604;SDS011;1312;50.298;8.520;2024-01-30T15:17:49;14.03;;;12.70;;